sensor_id;sensor_type;location;lat;lon;timestamp;pressure;altitude;pressure_sealevel;temperature;humidity
50430;BME280;36359;41.556;-8.418;2022-08-23T00:01:40;99636.66;;;26.85;51.39
50430;BME280;36359;41.556;-8.418;2022-08-23T00:04:12;99638.03;;;26.72;51.91
50430;BME280;36359;41.556;-8.418;2022-08-23T00:06:40;99634.66;;;26.70;51.55
50430;BME280;36359;41.556;-8.418;2022-08-23T00:09:07;99639.69;;;26.73;51.77
50430;BME280;36359;41.556;-8.418;2022-08-23T00:11:43;99633.53;;;26.61;51.96
50430;BME280;36359;41.556;-8.418;2022-08-23T00:16:42;99621.53;;;26.55;52.45
50430;BME280;36359;41.556;-8.418;2022-08-23T00:19:11;99622.91;;;26.53;52.20
50430;BME280;36359;41.556;-8.418;2022-08-23T00:21:38;99621.78;;;26.48;52.71
50430;BME280;36359;41.556;-8.418;2022-08-23T00:24:06;99617.59;;;26.46;52.31
50430;BME280;36359;41.556;-8.418;2022-08-23T00:29:17;99629.84;;;26.50;52.44
50430;BME280;36359;41.556;-8.418;2022-08-23T00:31:43;99623.69;;;26.43;52.67
50430;BME280;36359;41.556;-8.418;2022-08-23T00:34:09;99616.19;;;26.43;52.72
50430;BME280;36359;41.556;-8.418;2022-08-23T00:36:35;99620.06;;;26.37;52.90
50430;BME280;36359;41.556;-8.418;2022-08-23T00:39:00;99615.56;;;26.31;53.00
50430;BME280;36359;41.556;-8.418;2022-08-23T00:41:27;99613.91;;;26.35;53.46
50430;BME280;36359;41.556;-8.418;2022-08-23T00:43:53;99618.03;;;26.22;53.49
50430;BME280;36359;41.556;-8.418;2022-08-23T00:46:55;99610.53;;;26.18;53.99
50430;BME280;36359;41.556;-8.418;2022-08-23T00:49:43;99619.16;;;26.21;53.48
50430;BME280;36359;41.556;-8.418;2022-08-23T00:52:19;99610.56;;;26.28;53.51
50430;BME280;36359;41.556;-8.418;2022-08-23T00:54:49;99618.56;;;26.19;53.99
50430;BME280;36359;41.556;-8.418;2022-08-23T00:57:17;99613.06;;;26.29;53.47
50430;BME280;36359;41.556;-8.418;2022-08-23T00:59:44;99614.75;;;26.31;53.94
50430;BME280;36359;41.556;-8.418;2022-08-23T01:02:11;99605.00;;;26.28;53.96
50430;BME280;36359;41.556;-8.418;2022-08-23T01:04:47;99608.81;;;26.17;53.88
50430;BME280;36359;41.556;-8.418;2022-08-23T01:07:20;99614.38;;;26.17;54.08
50430;BME280;36359;41.556;-8.418;2022-08-23T01:09:48;99604.41;;;26.21;54.45
50430;BME280;36359;41.556;-8.418;2022-08-23T01:12:21;99604.09;;;26.17;54.08
50430;BME280;36359;41.556;-8.418;2022-08-23T01:15:10;99611.56;;;26.12;54.30
50430;BME280;36359;41.556;-8.418;2022-08-23T01:17:45;99605.53;;;26.25;54.63
50430;BME280;36359;41.556;-8.418;2022-08-23T01:20:15;99619.59;;;26.50;55.16
50430;BME280;36359;41.556;-8.418;2022-08-23T01:23:06;99607.28;;;26.46;54.33
50430;BME280;36359;41.556;-8.418;2022-08-23T01:25:35;99614.88;;;26.51;54.79
50430;BME280;36359;41.556;-8.418;2022-08-23T01:28:02;99612.47;;;26.22;54.57
50430;BME280;36359;41.556;-8.418;2022-08-23T01:30:31;99612.44;;;26.17;54.04
50430;BME280;36359;41.556;-8.418;2022-08-23T01:33:01;99605.19;;;26.11;53.93
50430;BME280;36359;41.556;-8.418;2022-08-23T01:35:34;99613.22;;;26.08;54.00
50430;BME280;36359;41.556;-8.418;2022-08-23T01:38:03;99615.19;;;26.07;54.13
50430;BME280;36359;41.556;-8.418;2022-08-23T01:40:29;99608.47;;;25.98;54.15
50430;BME280;36359;41.556;-8.418;2022-08-23T01:42:55;99610.41;;;26.02;54.26
50430;BME280;36359;41.556;-8.418;2022-08-23T01:45:21;99602.41;;;26.06;54.72
50430;BME280;36359;41.556;-8.418;2022-08-23T01:47:48;99614.28;;;25.96;55.99
50430;BME280;36359;41.556;-8.418;2022-08-23T01:50:14;99607.00;;;25.90;55.72
50430;BME280;36359;41.556;-8.418;2022-08-23T01:52:42;99614.59;;;25.68;56.48
50430;BME280;36359;41.556;-8.418;2022-08-23T01:55:09;99601.72;;;25.51;56.22
50430;BME280;36359;41.556;-8.418;2022-08-23T01:57:35;99609.47;;;25.49;56.16
50430;BME280;36359;41.556;-8.418;2022-08-23T02:00:07;99603.13;;;25.54;56.47
50430;BME280;36359;41.556;-8.418;2022-08-23T02:02:39;99605.66;;;25.60;55.65
50430;BME280;36359;41.556;-8.418;2022-08-23T02:05:07;99609.97;;;25.78;57.03
50430;BME280;36359;41.556;-8.418;2022-08-23T02:07:33;99616.06;;;25.75;55.63
50430;BME280;36359;41.556;-8.418;2022-08-23T02:09:59;99614.59;;;25.68;55.31
50430;BME280;36359;41.556;-8.418;2022-08-23T02:12:25;99613.38;;;25.86;56.83
50430;BME280;36359;41.556;-8.418;2022-08-23T02:17:28;99616.34;;;25.74;56.02
50430;BME280;36359;41.556;-8.418;2022-08-23T02:19:54;99621.19;;;25.56;56.42
50430;BME280;36359;41.556;-8.418;2022-08-23T02:22:20;99622.22;;;25.45;56.42
50430;BME280;36359;41.556;-8.418;2022-08-23T02:24:46;99612.69;;;25.36;56.61
50430;BME280;36359;41.556;-8.418;2022-08-23T02:27:14;99618.81;;;25.38;56.50
50430;BME280;36359;41.556;-8.418;2022-08-23T02:29:43;99618.56;;;25.40;56.41
50430;BME280;36359;41.556;-8.418;2022-08-23T02:32:10;99613.75;;;25.30;56.72
50430;BME280;36359;41.556;-8.418;2022-08-23T02:34:37;99615.38;;;25.26;56.89
50430;BME280;36359;41.556;-8.418;2022-08-23T02:37:05;99613.00;;;25.12;57.28
50430;BME280;36359;41.556;-8.418;2022-08-23T02:39:32;99618.81;;;25.11;57.28
50430;BME280;36359;41.556;-8.418;2022-08-23T02:41:59;99627.88;;;25.01;57.91
50430;BME280;36359;41.556;-8.418;2022-08-23T02:44:28;99618.44;;;25.02;57.82
50430;BME280;36359;41.556;-8.418;2022-08-23T02:46:56;99618.22;;;25.09;57.29
50430;BME280;36359;41.556;-8.418;2022-08-23T02:49:21;99614.19;;;25.17;57.39
50430;BME280;36359;41.556;-8.418;2022-08-23T02:51:47;99606.28;;;25.03;57.74
50430;BME280;36359;41.556;-8.418;2022-08-23T02:54:13;99613.19;;;25.06;57.81
50430;BME280;36359;41.556;-8.418;2022-08-23T02:56:39;99607.34;;;25.02;57.35
50430;BME280;36359;41.556;-8.418;2022-08-23T02:59:06;99607.34;;;25.02;57.41
50430;BME280;36359;41.556;-8.418;2022-08-23T03:01:35;99607.88;;;24.99;58.30
50430;BME280;36359;41.556;-8.418;2022-08-23T03:04:14;99608.75;;;25.05;57.83
50430;BME280;36359;41.556;-8.418;2022-08-23T03:06:40;99609.41;;;25.12;57.58
50430;BME280;36359;41.556;-8.418;2022-08-23T03:09:07;99602.50;;;25.14;58.04
50430;BME280;36359;41.556;-8.418;2022-08-23T03:11:34;99602.84;;;25.18;57.62
50430;BME280;36359;41.556;-8.418;2022-08-23T03:14:00;99602.50;;;25.14;57.43
50430;BME280;36359;41.556;-8.418;2022-08-23T03:16:27;99591.59;;;25.08;57.35
50430;BME280;36359;41.556;-8.418;2022-08-23T03:18:53;99594.34;;;25.08;57.75
50430;BME280;36359;41.556;-8.418;2022-08-23T03:21:19;99595.41;;;25.02;57.93
50430;BME280;36359;41.556;-8.418;2022-08-23T03:23:47;99602.91;;;25.01;57.76
50430;BME280;36359;41.556;-8.418;2022-08-23T03:26:13;99607.34;;;25.02;58.08
50430;BME280;36359;41.556;-8.418;2022-08-23T03:28:41;99598.50;;;25.05;57.65
50430;BME280;36359;41.556;-8.418;2022-08-23T03:31:08;99608.03;;;25.14;58.49
50430;BME280;36359;41.556;-8.418;2022-08-23T03:33:45;99598.78;;;25.31;58.04
50430;BME280;36359;41.556;-8.418;2022-08-23T03:36:11;99604.53;;;25.56;57.68
50430;BME280;36359;41.556;-8.418;2022-08-23T03:38:39;99608.34;;;25.45;55.92
50430;BME280;36359;41.556;-8.418;2022-08-23T03:41:07;99602.59;;;25.25;56.98
50430;BME280;36359;41.556;-8.418;2022-08-23T03:43:34;99598.50;;;25.05;57.31
50430;BME280;36359;41.556;-8.418;2022-08-23T03:46:01;99594.13;;;25.09;57.06
50430;BME280;36359;41.556;-8.418;2022-08-23T03:48:28;99594.13;;;25.09;57.14
50430;BME280;36359;41.556;-8.418;2022-08-23T03:50:54;99584.19;;;25.13;57.28
50430;BME280;36359;41.556;-8.418;2022-08-23T03:53:19;99590.34;;;25.21;56.83
50430;BME280;36359;41.556;-8.418;2022-08-23T03:55:49;99598.78;;;25.04;57.19
50430;BME280;36359;41.556;-8.418;2022-08-23T03:58:16;99591.81;;;25.28;59.09
50430;BME280;36359;41.556;-8.418;2022-08-23T04:00:42;99595.09;;;25.25;57.16
50430;BME280;36359;41.556;-8.418;2022-08-23T04:03:09;99593.88;;;25.43;57.85
50430;BME280;36359;41.556;-8.418;2022-08-23T04:05:51;99597.91;;;25.63;57.51
50430;BME280;36359;41.556;-8.418;2022-08-23T04:08:18;99603.91;;;25.49;57.13
50430;BME280;36359;41.556;-8.418;2022-08-23T04:10:46;99604.56;;;25.29;56.85
50430;BME280;36359;41.556;-8.418;2022-08-23T04:13:12;99610.66;;;25.26;57.90
50430;BME280;36359;41.556;-8.418;2022-08-23T04:15:37;99602.16;;;25.11;57.35
50430;BME280;36359;41.556;-8.418;2022-08-23T04:18:04;99612.34;;;25.00;57.76
50430;BME280;36359;41.556;-8.418;2022-08-23T04:20:30;99602.59;;;24.98;58.44
50430;BME280;36359;41.556;-8.418;2022-08-23T04:22:59;99596.53;;;25.01;57.70
50430;BME280;36359;41.556;-8.418;2022-08-23T04:25:29;99594.34;;;25.08;58.40
50430;BME280;36359;41.556;-8.418;2022-08-23T04:27:58;99596.88;;;25.09;57.65
50430;BME280;36359;41.556;-8.418;2022-08-23T04:30:24;99610.28;;;24.90;57.87
50430;BME280;36359;41.556;-8.418;2022-08-23T04:32:50;99602.63;;;25.03;58.80
50430;BME280;36359;41.556;-8.418;2022-08-23T04:35:16;99602.69;;;25.08;57.72
50430;BME280;36359;41.556;-8.418;2022-08-23T04:37:42;99599.13;;;25.12;58.24
50430;BME280;36359;41.556;-8.418;2022-08-23T04:40:09;99606.22;;;24.98;58.05
50430;BME280;36359;41.556;-8.418;2022-08-23T04:42:54;99607.50;;;24.90;58.41
50430;BME280;36359;41.556;-8.418;2022-08-23T04:45:20;99607.72;;;24.84;58.52
50430;BME280;36359;41.556;-8.418;2022-08-23T04:47:49;99604.66;;;24.58;59.24
50430;BME280;36359;41.556;-8.418;2022-08-23T04:50:15;99606.38;;;24.64;59.77
50430;BME280;36359;41.556;-8.418;2022-08-23T04:53:01;99604.38;;;24.82;58.85
50430;BME280;36359;41.556;-8.418;2022-08-23T04:55:30;99603.66;;;24.91;58.87
50430;BME280;36359;41.556;-8.418;2022-08-23T04:58:06;99603.66;;;25.19;59.25
50430;BME280;36359;41.556;-8.418;2022-08-23T05:00:40;99603.75;;;25.29;58.11
50430;BME280;36359;41.556;-8.418;2022-08-23T05:03:07;99608.72;;;25.59;58.33
50430;BME280;36359;41.556;-8.418;2022-08-23T05:05:33;99611.16;;;25.50;57.74
50430;BME280;36359;41.556;-8.418;2022-08-23T05:07:59;99614.09;;;25.71;57.65
50430;BME280;36359;41.556;-8.418;2022-08-23T05:10:26;99611.81;;;25.63;56.12
50430;BME280;36359;41.556;-8.418;2022-08-23T05:12:52;99617.91;;;25.27;57.15
50430;BME280;36359;41.556;-8.418;2022-08-23T05:15:20;99612.53;;;25.21;58.52
50430;BME280;36359;41.556;-8.418;2022-08-23T05:17:51;99613.19;;;25.06;58.15
50430;BME280;36359;41.556;-8.418;2022-08-23T05:20:18;99606.38;;;25.13;58.73
50430;BME280;36359;41.556;-8.418;2022-08-23T05:22:44;99611.41;;;25.49;57.60
50430;BME280;36359;41.556;-8.418;2022-08-23T05:25:39;99608.03;;;25.42;58.86
50430;BME280;36359;41.556;-8.418;2022-08-23T05:28:27;99613.41;;;25.53;57.09
50430;BME280;36359;41.556;-8.418;2022-08-23T05:31:07;99611.53;;;25.27;58.35
50430;BME280;36359;41.556;-8.418;2022-08-23T05:33:42;99616.91;;;25.38;58.20
50430;BME280;36359;41.556;-8.418;2022-08-23T05:36:10;99616.31;;;25.36;57.02
50430;BME280;36359;41.556;-8.418;2022-08-23T05:38:37;99622.28;;;25.55;58.20
50430;BME280;36359;41.556;-8.418;2022-08-23T05:41:04;99622.16;;;25.40;56.50
50430;BME280;36359;41.556;-8.418;2022-08-23T05:43:32;99623.44;;;25.27;57.63
50430;BME280;36359;41.556;-8.418;2022-08-23T05:46:08;99622.56;;;25.22;58.83
50430;BME280;36359;41.556;-8.418;2022-08-23T05:48:39;99620.94;;;25.26;58.66
50430;BME280;36359;41.556;-8.418;2022-08-23T05:53:40;99619.63;;;24.57;60.33
50430;BME280;36359;41.556;-8.418;2022-08-23T05:56:14;99630.34;;;24.98;60.26
50430;BME280;36359;41.556;-8.418;2022-08-23T05:58:41;99627.91;;;25.28;58.48
50430;BME280;36359;41.556;-8.418;2022-08-23T06:01:08;99627.13;;;25.33;57.95
50430;BME280;36359;41.556;-8.418;2022-08-23T06:03:35;99624.22;;;25.23;59.34
50430;BME280;36359;41.556;-8.418;2022-08-23T06:06:02;99626.00;;;25.07;59.54
50430;BME280;36359;41.556;-8.418;2022-08-23T06:08:28;99630.09;;;25.26;59.00
50430;BME280;36359;41.556;-8.418;2022-08-23T06:10:59;99631.97;;;25.48;58.17
50430;BME280;36359;41.556;-8.418;2022-08-23T06:13:32;99632.31;;;25.02;58.50
50430;BME280;36359;41.556;-8.418;2022-08-23T06:15:58;99637.81;;;24.48;60.59
50430;BME280;36359;41.556;-8.418;2022-08-23T06:18:25;99643.66;;;24.74;60.16
50430;BME280;36359;41.556;-8.418;2022-08-23T06:21:06;99650.97;;;25.07;59.70
50430;BME280;36359;41.556;-8.418;2022-08-23T06:23:46;99644.25;;;25.25;58.98
50430;BME280;36359;41.556;-8.418;2022-08-23T06:26:26;99652.09;;;25.33;58.64
50430;BME280;36359;41.556;-8.418;2022-08-23T06:28:55;99654.53;;;25.02;58.90
50430;BME280;36359;41.556;-8.418;2022-08-23T06:31:23;99657.06;;;24.82;59.60
50430;BME280;36359;41.556;-8.418;2022-08-23T06:34:22;99657.44;;;24.90;59.78
50430;BME280;36359;41.556;-8.418;2022-08-23T06:37:05;99652.81;;;25.23;59.51
50430;BME280;36359;41.556;-8.418;2022-08-23T06:39:49;99648.47;;;25.32;58.78
50430;BME280;36359;41.556;-8.418;2022-08-23T06:42:34;99661.44;;;25.22;57.88
50430;BME280;36359;41.556;-8.418;2022-08-23T06:45:02;99660.78;;;25.14;58.72
50430;BME280;36359;41.556;-8.418;2022-08-23T06:47:37;99657.59;;;25.28;59.12
50430;BME280;36359;41.556;-8.418;2022-08-23T06:50:03;99646.50;;;25.28;58.90
50430;BME280;36359;41.556;-8.418;2022-08-23T06:52:49;99654.00;;;25.32;57.83
50430;BME280;36359;41.556;-8.418;2022-08-23T06:55:33;99652.72;;;25.40;59.16
50430;BME280;36359;41.556;-8.418;2022-08-23T06:58:14;99651.78;;;25.61;58.34
50430;BME280;36359;41.556;-8.418;2022-08-23T07:01:18;99652.88;;;25.60;57.62
50430;BME280;36359;41.556;-8.418;2022-08-23T07:04:02;99660.25;;;25.77;57.93
50430;BME280;36359;41.556;-8.418;2022-08-23T07:07:01;99647.44;;;25.71;57.30
50430;BME280;36359;41.556;-8.418;2022-08-23T07:09:28;99656.13;;;25.47;57.51
50430;BME280;36359;41.556;-8.418;2022-08-23T07:11:54;99656.78;;;25.65;57.37
50430;BME280;36359;41.556;-8.418;2022-08-23T07:14:21;99654.31;;;25.63;57.99
50430;BME280;36359;41.556;-8.418;2022-08-23T07:19:24;99652.00;;;25.87;57.59
50430;BME280;36359;41.556;-8.418;2022-08-23T07:21:51;99653.19;;;25.64;58.27
50430;BME280;36359;41.556;-8.418;2022-08-23T07:24:18;99650.81;;;25.78;57.88
50430;BME280;36359;41.556;-8.418;2022-08-23T07:26:49;99653.19;;;25.96;57.74
50430;BME280;36359;41.556;-8.418;2022-08-23T07:29:19;99654.50;;;25.83;57.79
50430;BME280;36359;41.556;-8.418;2022-08-23T07:31:51;99649.50;;;25.53;57.42
50430;BME280;36359;41.556;-8.418;2022-08-23T07:34:18;99651.78;;;25.61;58.36
50430;BME280;36359;41.556;-8.418;2022-08-23T07:36:45;99655.94;;;25.59;58.72
50430;BME280;36359;41.556;-8.418;2022-08-23T07:39:12;99650.63;;;25.57;58.41
50430;BME280;36359;41.556;-8.418;2022-08-23T07:41:38;99648.28;;;25.44;60.30
50430;BME280;36359;41.556;-8.418;2022-08-23T07:44:07;99649.09;;;25.72;59.18
50430;BME280;36359;41.556;-8.418;2022-08-23T07:46:36;99647.75;;;25.79;58.85
50430;BME280;36359;41.556;-8.418;2022-08-23T07:49:03;99649.38;;;25.75;59.24
50430;BME280;36359;41.556;-8.418;2022-08-23T07:51:37;99649.84;;;25.94;59.05
50430;BME280;36359;41.556;-8.418;2022-08-23T07:54:08;99648.78;;;26.05;58.09
50430;BME280;36359;41.556;-8.418;2022-08-23T07:56:41;99637.13;;;26.09;58.04
50430;BME280;36359;41.556;-8.418;2022-08-23T07:59:15;99649.94;;;26.15;57.85
50430;BME280;36359;41.556;-8.418;2022-08-23T08:02:05;99650.59;;;26.27;57.10
50430;BME280;36359;41.556;-8.418;2022-08-23T08:04:33;99655.09;;;26.38;58.41
50430;BME280;36359;41.556;-8.418;2022-08-23T08:06:59;99645.25;;;26.15;58.56
50430;BME280;36359;41.556;-8.418;2022-08-23T08:09:26;99644.47;;;26.25;59.11
50430;BME280;36359;41.556;-8.418;2022-08-23T08:11:53;99649.44;;;26.18;57.00
50430;BME280;36359;41.556;-8.418;2022-08-23T08:14:24;99647.56;;;26.34;56.63
50430;BME280;36359;41.556;-8.418;2022-08-23T08:16:54;99645.09;;;26.42;55.74
50430;BME280;36359;41.556;-8.418;2022-08-23T08:19:36;99652.97;;;26.56;54.44
50430;BME280;36359;41.556;-8.418;2022-08-23T08:22:20;99659.13;;;26.63;55.29
50430;BME280;36359;41.556;-8.418;2022-08-23T08:25:07;99648.63;;;26.80;54.70
50430;BME280;36359;41.556;-8.418;2022-08-23T08:27:35;99656.53;;;27.19;53.55
50430;BME280;36359;41.556;-8.418;2022-08-23T08:30:03;99662.63;;;27.11;54.36
50430;BME280;36359;41.556;-8.418;2022-08-23T08:32:29;99662.38;;;27.17;52.91
50430;BME280;36359;41.556;-8.418;2022-08-23T08:34:54;99656.03;;;27.43;52.60
50430;BME280;36359;41.556;-8.418;2022-08-23T08:37:21;99660.47;;;27.49;51.36
50430;BME280;36359;41.556;-8.418;2022-08-23T08:39:47;99672.19;;;27.51;50.66
50430;BME280;36359;41.556;-8.418;2022-08-23T08:42:40;99671.91;;;27.57;49.51
50430;BME280;36359;41.556;-8.418;2022-08-23T08:45:11;99671.66;;;27.84;48.55
50430;BME280;36359;41.556;-8.418;2022-08-23T08:47:56;99672.16;;;27.76;48.73
50430;BME280;36359;41.556;-8.418;2022-08-23T08:50:44;99671.09;;;27.98;48.14
50430;BME280;36359;41.556;-8.418;2022-08-23T08:56:31;99677.13;;;28.51;47.78
50430;BME280;36359;41.556;-8.418;2022-08-23T08:59:21;99668.47;;;28.32;46.29
50430;BME280;36359;41.556;-8.418;2022-08-23T09:01:47;99673.22;;;28.37;47.14
50430;BME280;36359;41.556;-8.418;2022-08-23T09:04:19;99671.84;;;28.44;46.68
50430;BME280;36359;41.556;-8.418;2022-08-23T09:06:52;99672.38;;;28.41;46.78
50430;BME280;36359;41.556;-8.418;2022-08-23T09:15:02;99673.59;;;28.95;45.14
50430;BME280;36359;41.556;-8.418;2022-08-23T09:20:08;99664.75;;;29.27;45.14
50430;BME280;36359;41.556;-8.418;2022-08-23T09:22:40;99669.88;;;29.54;44.74
50430;BME280;36359;41.556;-8.418;2022-08-23T09:25:18;99664.47;;;29.68;43.63
50430;BME280;36359;41.556;-8.418;2022-08-23T09:27:54;99664.31;;;29.49;43.58
50430;BME280;36359;41.556;-8.418;2022-08-23T09:30:20;99668.59;;;29.36;43.16
50430;BME280;36359;41.556;-8.418;2022-08-23T09:32:48;99657.44;;;29.71;42.93
50430;BME280;36359;41.556;-8.418;2022-08-23T09:35:18;99657.25;;;29.91;41.33
50430;BME280;36359;41.556;-8.418;2022-08-23T09:40:43;99661.22;;;30.14;40.69
50430;BME280;36359;41.556;-8.418;2022-08-23T09:43:21;99667.38;;;30.45;40.23
50430;BME280;36359;41.556;-8.418;2022-08-23T09:45:52;99663.06;;;30.29;38.79
50430;BME280;36359;41.556;-8.418;2022-08-23T09:53:40;99651.00;;;30.76;39.41
50430;BME280;36359;41.556;-8.418;2022-08-23T09:56:14;99655.75;;;30.81;36.27
50430;BME280;36359;41.556;-8.418;2022-08-23T09:58:43;99643.88;;;30.89;35.75
50430;BME280;36359;41.556;-8.418;2022-08-23T10:01:22;99647.28;;;31.24;34.92
50430;BME280;36359;41.556;-8.418;2022-08-23T10:04:12;99657.50;;;31.15;34.34
50430;BME280;36359;41.556;-8.418;2022-08-23T10:06:42;99653.66;;;31.30;34.45
50430;BME280;36359;41.556;-8.418;2022-08-23T10:09:29;99650.25;;;31.52;34.80
50430;BME280;36359;41.556;-8.418;2022-08-23T10:12:00;99644.38;;;31.67;34.55
50430;BME280;36359;41.556;-8.418;2022-08-23T10:14:28;99649.19;;;31.48;35.56
50430;BME280;36359;41.556;-8.418;2022-08-23T10:19:50;99648.28;;;31.33;39.51
50430;BME280;36359;41.556;-8.418;2022-08-23T10:22:28;99642.19;;;31.64;37.39
50430;BME280;36359;41.556;-8.418;2022-08-23T10:25:25;99631.63;;;31.88;38.26
50430;BME280;36359;41.556;-8.418;2022-08-23T10:39:28;99639.84;;;31.52;39.32
50430;BME280;36359;41.556;-8.418;2022-08-23T10:42:03;99634.78;;;31.35;38.93
50430;BME280;36359;41.556;-8.418;2022-08-23T10:50:26;99631.81;;;32.11;36.69
50430;BME280;36359;41.556;-8.418;2022-08-23T10:53:06;99634.56;;;32.30;36.79
50430;BME280;36359;41.556;-8.418;2022-08-23T10:55:46;99625.91;;;32.26;37.28
50430;BME280;36359;41.556;-8.418;2022-08-23T11:10:09;99626.34;;;32.33;34.88
50430;BME280;36359;41.556;-8.418;2022-08-23T11:15:38;99619.69;;;32.16;35.90
50430;BME280;36359;41.556;-8.418;2022-08-23T11:18:11;99617.53;;;31.80;35.48
50430;BME280;36359;41.556;-8.418;2022-08-23T11:23:42;99613.34;;;32.10;36.66
50430;BME280;36359;41.556;-8.418;2022-08-23T11:34:24;99599.72;;;32.72;35.48
50430;BME280;36359;41.556;-8.418;2022-08-23T11:51:31;99599.56;;;34.35;28.85
50430;BME280;36359;41.556;-8.418;2022-08-23T11:57:17;99590.19;;;33.77;31.82
50430;BME280;36359;41.556;-8.418;2022-08-23T12:21:08;99575.69;;;34.98;29.07
50430;BME280;36359;41.556;-8.418;2022-08-23T12:23:50;99567.88;;;34.69;29.18
50430;BME280;36359;41.556;-8.418;2022-08-23T12:28:56;99563.75;;;35.36;27.92
50430;BME280;36359;41.556;-8.418;2022-08-23T12:39:36;99560.06;;;34.66;29.36
50430;BME280;36359;41.556;-8.418;2022-08-23T12:44:36;99553.63;;;34.66;31.61
50430;BME280;36359;41.556;-8.418;2022-08-23T12:47:11;99553.34;;;35.11;30.53
50430;BME280;36359;41.556;-8.418;2022-08-23T12:49:37;99553.03;;;34.37;32.07
50430;BME280;36359;41.556;-8.418;2022-08-23T12:52:10;99551.00;;;35.30;30.69
50430;BME280;36359;41.556;-8.418;2022-08-23T12:54:42;99559.25;;;35.35;28.97
50430;BME280;36359;41.556;-8.418;2022-08-23T12:57:16;99551.13;;;35.60;29.53
50430;BME280;36359;41.556;-8.418;2022-08-23T13:00:05;99547.34;;;35.21;30.45
50430;BME280;36359;41.556;-8.418;2022-08-23T13:02:35;99555.25;;;35.71;29.81
50430;BME280;36359;41.556;-8.418;2022-08-23T13:05:09;99548.63;;;35.49;30.39
50430;BME280;36359;41.556;-8.418;2022-08-23T13:07:38;99556.44;;;35.35;31.75
50430;BME280;36359;41.556;-8.418;2022-08-23T13:10:07;99550.81;;;35.18;31.95
50430;BME280;36359;41.556;-8.418;2022-08-23T13:12:34;99550.00;;;35.09;31.85
50430;BME280;36359;41.556;-8.418;2022-08-23T13:15:00;99547.34;;;35.21;31.72
50430;BME280;36359;41.556;-8.418;2022-08-23T13:17:32;99541.69;;;35.21;32.82
50430;BME280;36359;41.556;-8.418;2022-08-23T13:22:29;99547.31;;;35.38;32.26
50430;BME280;36359;41.556;-8.418;2022-08-23T13:25:11;99544.66;;;35.51;31.86
50430;BME280;36359;41.556;-8.418;2022-08-23T13:32:51;99554.63;;;35.57;30.77
50430;BME280;36359;41.556;-8.418;2022-08-23T13:40:49;99543.47;;;35.69;31.36
50430;BME280;36359;41.556;-8.418;2022-08-23T13:43:25;99551.56;;;35.79;31.29
50430;BME280;36359;41.556;-8.418;2022-08-23T13:45:53;99547.41;;;35.77;31.48
50430;BME280;36359;41.556;-8.418;2022-08-23T13:48:32;99543.53;;;35.99;31.28
50430;BME280;36359;41.556;-8.418;2022-08-23T13:51:18;99553.97;;;35.42;31.18
50430;BME280;36359;41.556;-8.418;2022-08-23T13:53:45;99553.97;;;35.60;31.25
50430;BME280;36359;41.556;-8.418;2022-08-23T13:56:12;99548.16;;;35.47;31.14
50430;BME280;36359;41.556;-8.418;2022-08-23T13:58:39;99547.84;;;35.23;31.78
50430;BME280;36359;41.556;-8.418;2022-08-23T14:01:18;99544.84;;;35.37;31.61
50430;BME280;36359;41.556;-8.418;2022-08-23T14:03:44;99551.81;;;35.57;31.60
50430;BME280;36359;41.556;-8.418;2022-08-23T14:06:10;99548.63;;;35.67;31.40
50430;BME280;36359;41.556;-8.418;2022-08-23T14:08:36;99538.19;;;35.59;31.65
50430;BME280;36359;41.556;-8.418;2022-08-23T14:11:02;99547.31;;;35.56;31.42
50430;BME280;36359;41.556;-8.418;2022-08-23T14:13:29;99542.44;;;35.74;30.76
50430;BME280;36359;41.556;-8.418;2022-08-23T14:16:00;99547.81;;;35.49;30.75
50430;BME280;36359;41.556;-8.418;2022-08-23T14:18:26;99553.44;;;35.66;30.70
50430;BME280;36359;41.556;-8.418;2022-08-23T14:20:52;99551.59;;;35.53;31.32
50430;BME280;36359;41.556;-8.418;2022-08-23T14:23:18;99545.34;;;34.95;31.77
50430;BME280;36359;41.556;-8.418;2022-08-23T14:25:43;99545.03;;;35.23;31.90
50430;BME280;36359;41.556;-8.418;2022-08-23T14:28:09;99543.19;;;35.36;31.77
50430;BME280;36359;41.556;-8.418;2022-08-23T14:30:35;99540.38;;;34.75;32.45
50430;BME280;36359;41.556;-8.418;2022-08-23T14:33:03;99540.84;;;35.03;31.61
50430;BME280;36359;41.556;-8.418;2022-08-23T14:35:29;99543.53;;;35.34;31.01
50430;BME280;36359;41.556;-8.418;2022-08-23T14:37:54;99533.41;;;34.72;32.73
50430;BME280;36359;41.556;-8.418;2022-08-23T14:40:20;99539.22;;;35.19;30.70
50430;BME280;36359;41.556;-8.418;2022-08-23T14:42:46;99538.41;;;35.19;31.68
50430;BME280;36359;41.556;-8.418;2022-08-23T14:45:14;99530.69;;;34.50;32.85
50430;BME280;36359;41.556;-8.418;2022-08-23T14:47:40;99539.34;;;35.40;30.51
50430;BME280;36359;41.556;-8.418;2022-08-23T14:50:08;99531.03;;;35.53;29.97
50430;BME280;36359;41.556;-8.418;2022-08-23T14:52:36;99531.72;;;35.58;30.07
50430;BME280;36359;41.556;-8.418;2022-08-23T14:55:03;99528.56;;;35.60;29.89
50430;BME280;36359;41.556;-8.418;2022-08-23T14:57:29;99529.25;;;35.39;30.29
50430;BME280;36359;41.556;-8.418;2022-08-23T14:59:55;99523.06;;;34.50;31.97
50430;BME280;36359;41.556;-8.418;2022-08-23T15:02:23;99527.50;;;34.25;33.22
50430;BME280;36359;41.556;-8.418;2022-08-23T15:04:51;99519.31;;;34.98;29.99
50430;BME280;36359;41.556;-8.418;2022-08-23T15:07:17;99507.22;;;34.54;32.63
50430;BME280;36359;41.556;-8.418;2022-08-23T15:09:44;99513.19;;;35.14;30.47
50430;BME280;36359;41.556;-8.418;2022-08-23T15:12:09;99511.69;;;34.64;31.78
50430;BME280;36359;41.556;-8.418;2022-08-23T15:14:35;99514.00;;;35.32;30.45
50430;BME280;36359;41.556;-8.418;2022-08-23T15:17:01;99514.50;;;35.25;30.67
50430;BME280;36359;41.556;-8.418;2022-08-23T15:19:28;99514.50;;;34.90;31.63
50430;BME280;36359;41.556;-8.418;2022-08-23T15:21:54;99508.91;;;35.08;30.48
50430;BME280;36359;41.556;-8.418;2022-08-23T15:24:20;99508.22;;;34.93;31.34
50430;BME280;36359;41.556;-8.418;2022-08-23T15:26:45;99509.69;;;35.25;29.89
50430;BME280;36359;41.556;-8.418;2022-08-23T15:29:11;99504.47;;;34.23;33.30
50430;BME280;36359;41.556;-8.418;2022-08-23T15:31:37;99503.41;;;34.68;31.32
50430;BME280;36359;41.556;-8.418;2022-08-23T15:34:03;99507.38;;;34.93;31.01